sensor_id;sensor_type;location;lat;lon;timestamp;pressure;altitude;pressure_sealevel;temperature;humidity
75039;BME280;63609;49.992;14.512;2023-03-21T11:35:57;98027.97;;;15.60;37.12
75039;BME280;63609;49.992;14.512;2023-03-21T11:38:38;98025.47;;;15.06;38.08
75039;BME280;63609;49.992;14.512;2023-03-21T11:41:06;98021.00;;;15.51;37.32
75039;BME280;63609;49.992;14.512;2023-03-21T11:43:36;98014.31;;;16.36;36.42
75039;BME280;63609;49.992;14.512;2023-03-21T11:48:37;98014.34;;;15.91;37.14
75039;BME280;63609;49.992;14.512;2023-03-21T11:54:21;97994.66;;;15.76;36.09
75039;BME280;63609;49.992;14.512;2023-03-21T11:56:53;97992.09;;;16.70;35.68
75039;BME280;63609;49.992;14.512;2023-03-21T12:05:17;97974.56;;;17.58;34.13
75039;BME280;63609;49.992;14.512;2023-03-21T12:15:40;97959.50;;;19.45;29.98
75039;BME280;63609;49.992;14.512;2023-03-21T12:18:32;97960.13;;;19.40;30.16
75039;BME280;63609;49.992;14.512;2023-03-21T12:21:11;97968.88;;;19.22;30.33
75039;BME280;63609;49.992;14.512;2023-03-21T12:26:48;97954.06;;;20.29;30.88
75039;BME280;63609;49.992;14.512;2023-03-21T12:29:31;97955.78;;;19.19;30.51
75039;BME280;63609;49.992;14.512;2023-03-21T12:32:41;97959.50;;;18.11;32.73
75039;BME280;63609;49.992;14.512;2023-03-21T12:46:18;97951.59;;;18.16;33.17
75039;BME280;63609;49.992;14.512;2023-03-21T12:48:56;97938.06;;;18.77;31.02
75039;BME280;63609;49.992;14.512;2023-03-21T12:51:40;97932.34;;;19.71;29.53
75039;BME280;63609;49.992;14.512;2023-03-21T12:54:22;97920.81;;;20.02;29.45
75039;BME280;63609;49.992;14.512;2023-03-21T12:57:09;97924.00;;;20.30;29.31
75039;BME280;63609;49.992;14.512;2023-03-21T12:59:45;97924.06;;;19.53;30.05
75039;BME280;63609;49.992;14.512;2023-03-21T13:02:42;97918.72;;;19.00;30.59
75039;BME280;63609;49.992;14.512;2023-03-21T13:08:06;97914.72;;;18.56;31.56
75039;BME280;63609;49.992;14.512;2023-03-21T13:10:35;97910.31;;;17.12;33.25
75039;BME280;63609;49.992;14.512;2023-03-21T13:16:22;97899.66;;;17.32;32.74
75039;BME280;63609;49.992;14.512;2023-03-21T13:21:50;97879.25;;;17.98;31.30
75039;BME280;63609;49.992;14.512;2023-03-21T13:26:49;97879.13;;;19.38;29.68
75039;BME280;63609;49.992;14.512;2023-03-21T13:29:30;97873.53;;;18.81;30.22
75039;BME280;63609;49.992;14.512;2023-03-21T13:32:07;97871.56;;;20.43;28.64
75039;BME280;63609;49.992;14.512;2023-03-21T13:34:38;97873.00;;;20.77;27.68
75039;BME280;63609;49.992;14.512;2023-03-21T13:37:13;97873.28;;;20.69;27.45
75039;BME280;63609;49.992;14.512;2023-03-21T13:39:44;97864.63;;;21.04;27.01
75039;BME280;63609;49.992;14.512;2023-03-21T13:42:32;97869.25;;;21.28;27.76
75039;BME280;63609;49.992;14.512;2023-03-21T13:45:00;97862.91;;;21.34;27.54
75039;BME280;63609;49.992;14.512;2023-03-21T13:50:27;97865.06;;;20.51;29.04
75039;BME280;63609;49.992;14.512;2023-03-21T13:55:30;97863.81;;;17.85;32.01
75039;BME280;63609;49.992;14.512;2023-03-21T13:58:23;97858.22;;;17.11;33.44
75039;BME280;63609;49.992;14.512;2023-03-21T14:03:45;97863.47;;;18.15;31.83
75039;BME280;63609;49.992;14.512;2023-03-21T14:06:16;97865.78;;;18.25;31.38
75039;BME280;63609;49.992;14.512;2023-03-21T14:08:46;97852.13;;;19.05;30.73
75039;BME280;63609;49.992;14.512;2023-03-21T14:11:18;97849.56;;;19.24;29.45
75039;BME280;63609;49.992;14.512;2023-03-21T14:13:46;97851.72;;;20.49;28.77
75039;BME280;63609;49.992;14.512;2023-03-21T14:16:18;97846.81;;;20.89;28.65
75039;BME280;63609;49.992;14.512;2023-03-21T14:18:53;97854.78;;;21.82;26.86
75039;BME280;63609;49.992;14.512;2023-03-21T14:21:25;97854.38;;;22.15;25.77
75039;BME280;63609;49.992;14.512;2023-03-21T14:24:01;97847.81;;;22.35;25.75
75039;BME280;63609;49.992;14.512;2023-03-21T14:26:42;97843.09;;;21.82;26.29
75039;BME280;63609;49.992;14.512;2023-03-21T14:29:19;97847.13;;;21.61;26.44
75039;BME280;63609;49.992;14.512;2023-03-21T14:31:53;97846.69;;;19.83;27.85
75039;BME280;63609;49.992;14.512;2023-03-21T14:34:22;97837.03;;;20.32;28.52
75039;BME280;63609;49.992;14.512;2023-03-21T14:36:52;97845.16;;;20.00;29.52
75039;BME280;63609;49.992;14.512;2023-03-21T14:39:29;97839.91;;;20.06;28.82
75039;BME280;63609;49.992;14.512;2023-03-21T14:42:10;97841.09;;;20.16;28.42
75039;BME280;63609;49.992;14.512;2023-03-21T14:44:39;97832.00;;;19.59;29.16
75039;BME280;63609;49.992;14.512;2023-03-21T14:49:50;97833.13;;;18.26;30.92
75039;BME280;63609;49.992;14.512;2023-03-21T14:52:32;97825.66;;;19.21;30.15
75039;BME280;63609;49.992;14.512;2023-03-21T14:55:01;97828.44;;;19.59;29.33
75039;BME280;63609;49.992;14.512;2023-03-21T14:57:32;97826.38;;;19.54;29.18
75039;BME280;63609;49.992;14.512;2023-03-21T15:00:03;97821.31;;;18.80;29.80
75039;BME280;63609;49.992;14.512;2023-03-21T15:02:39;97826.34;;;18.37;30.81
75039;BME280;63609;49.992;14.512;2023-03-21T15:05:08;97827.66;;;17.86;31.97
75039;BME280;63609;49.992;14.512;2023-03-21T15:07:36;97830.72;;;18.31;30.79
75039;BME280;63609;49.992;14.512;2023-03-21T15:10:23;97826.53;;;18.42;32.05
75039;BME280;63609;49.992;14.512;2023-03-21T15:12:56;97826.78;;;17.66;33.84
75039;BME280;63609;49.992;14.512;2023-03-21T15:15:26;97826.53;;;17.61;33.87
75039;BME280;63609;49.992;14.512;2023-03-21T15:17:57;97824.59;;;18.03;32.55
75039;BME280;63609;49.992;14.512;2023-03-21T15:20:31;97823.06;;;17.74;33.58
75039;BME280;63609;49.992;14.512;2023-03-21T15:23:02;97823.50;;;17.77;34.82
75039;BME280;63609;49.992;14.512;2023-03-21T15:25:33;97815.41;;;17.30;34.99
75039;BME280;63609;49.992;14.512;2023-03-21T15:28:06;97819.66;;;17.59;34.29
75039;BME280;63609;49.992;14.512;2023-03-21T15:30:34;97821.47;;;17.45;34.38
75039;BME280;63609;49.992;14.512;2023-03-21T15:33:07;97814.72;;;17.21;34.61
75039;BME280;63609;49.992;14.512;2023-03-21T15:35:39;97812.56;;;17.51;34.32
75039;BME280;63609;49.992;14.512;2023-03-21T15:40:47;97804.16;;;16.91;34.81
75039;BME280;63609;49.992;14.512;2023-03-21T15:43:17;97807.75;;;16.71;35.35
75039;BME280;63609;49.992;14.512;2023-03-21T15:45:53;97808.31;;;16.94;35.61
75039;BME280;63609;49.992;14.512;2023-03-21T15:48:26;97807.66;;;16.85;35.96
75039;BME280;63609;49.992;14.512;2023-03-21T15:53:23;97804.59;;;16.95;36.60
75039;BME280;63609;49.992;14.512;2023-03-21T15:56:01;97805.94;;;16.78;36.54
75039;BME280;63609;49.992;14.512;2023-03-21T15:58:34;97816.16;;;16.12;37.38
75039;BME280;63609;49.992;14.512;2023-03-21T16:01:04;97821.22;;;16.43;37.82
75039;BME280;63609;49.992;14.512;2023-03-21T16:03:37;97818.81;;;16.54;37.01
75039;BME280;63609;49.992;14.512;2023-03-21T16:08:44;97814.34;;;16.40;37.66
75039;BME280;63609;49.992;14.512;2023-03-21T16:13:49;97814.75;;;16.37;37.24
75039;BME280;63609;49.992;14.512;2023-03-21T16:16:25;97818.97;;;16.25;37.83
75039;BME280;63609;49.992;14.512;2023-03-21T16:18:54;97816.09;;;16.05;38.19
75039;BME280;63609;49.992;14.512;2023-03-21T16:21:26;97818.78;;;16.05;38.04
75039;BME280;63609;49.992;14.512;2023-03-21T16:23:55;97815.91;;;16.07;37.93
75039;BME280;63609;49.992;14.512;2023-03-21T16:26:27;97812.34;;;15.85;38.53
75039;BME280;63609;49.992;14.512;2023-03-21T16:28:56;97818.03;;;15.75;38.45
75039;BME280;63609;49.992;14.512;2023-03-21T16:31:29;97814.38;;;15.47;39.02
75039;BME280;63609;49.992;14.512;2023-03-21T16:33:56;97820.38;;;15.63;39.15
75039;BME280;63609;49.992;14.512;2023-03-21T16:36:27;97829.19;;;15.72;38.77
75039;BME280;63609;49.992;14.512;2023-03-21T16:38:58;97825.34;;;15.81;38.69
75039;BME280;63609;49.992;14.512;2023-03-21T16:41:26;97820.56;;;15.98;38.29
75039;BME280;63609;49.992;14.512;2023-03-21T16:43:58;97820.28;;;15.72;38.92
75039;BME280;63609;49.992;14.512;2023-03-21T16:46:26;97818.25;;;15.95;38.59
75039;BME280;63609;49.992;14.512;2023-03-21T16:48:56;97817.28;;;15.45;39.42
75039;BME280;63609;49.992;14.512;2023-03-21T16:51:26;97819.06;;;15.59;39.33
75039;BME280;63609;49.992;14.512;2023-03-21T16:53:57;97822.06;;;15.50;39.50
75039;BME280;63609;49.992;14.512;2023-03-21T16:56:48;97817.03;;;15.11;40.15
75039;BME280;63609;49.992;14.512;2023-03-21T16:59:17;97816.81;;;15.27;39.83
75039;BME280;63609;49.992;14.512;2023-03-21T17:01:46;97820.19;;;15.14;40.04
75039;BME280;63609;49.992;14.512;2023-03-21T17:04:15;97822.22;;;15.12;40.16
75039;BME280;63609;49.992;14.512;2023-03-21T17:06:51;97817.22;;;15.09;40.42
75039;BME280;63609;49.992;14.512;2023-03-21T17:09:22;97812.91;;;15.00;40.54
75039;BME280;63609;49.992;14.512;2023-03-21T17:11:49;97821.25;;;14.90;40.78
75039;BME280;63609;49.992;14.512;2023-03-21T17:14:17;97822.75;;;14.78;41.18
75039;BME280;63609;49.992;14.512;2023-03-21T17:16:44;97816.06;;;14.89;41.31
75039;BME280;63609;49.992;14.512;2023-03-21T17:19:16;97826.06;;;14.80;41.32
75039;BME280;63609;49.992;14.512;2023-03-21T17:21:44;97822.00;;;14.69;42.26
75039;BME280;63609;49.992;14.512;2023-03-21T17:24:11;97816.53;;;14.92;41.12
75039;BME280;63609;49.992;14.512;2023-03-21T17:26:41;97818.00;;;14.80;42.10
75039;BME280;63609;49.992;14.512;2023-03-21T17:29:12;97811.56;;;15.04;41.62
75039;BME280;63609;49.992;14.512;2023-03-21T17:31:40;97816.47;;;15.15;41.14
75039;BME280;63609;49.992;14.512;2023-03-21T17:34:08;97822.81;;;14.85;41.85
75039;BME280;63609;49.992;14.512;2023-03-21T17:36:38;97816.72;;;14.91;41.46
75039;BME280;63609;49.992;14.512;2023-03-21T17:39:11;97818.84;;;14.81;41.31
75039;BME280;63609;49.992;14.512;2023-03-21T17:42:12;97817.25;;;15.01;41.14
75039;BME280;63609;49.992;14.512;2023-03-21T17:44:45;97817.81;;;14.96;41.30
75039;BME280;63609;49.992;14.512;2023-03-21T17:47:12;97818.00;;;14.80;41.29
75039;BME280;63609;49.992;14.512;2023-03-21T17:49:39;97816.63;;;14.84;41.12
75039;BME280;63609;49.992;14.512;2023-03-21T17:52:07;97813.84;;;14.77;41.20
75039;BME280;63609;49.992;14.512;2023-03-21T17:54:40;97821.72;;;14.79;41.23
75039;BME280;63609;49.992;14.512;2023-03-21T17:57:10;97817.97;;;14.65;41.46
75039;BME280;63609;49.992;14.512;2023-03-21T17:59:38;97819.13;;;14.86;40.88
75039;BME280;63609;49.992;14.512;2023-03-21T18:02:04;97824.50;;;14.86;41.08
75039;BME280;63609;49.992;14.512;2023-03-21T18:04:36;97822.66;;;14.86;41.21
75039;BME280;63609;49.992;14.512;2023-03-21T18:07:03;97820.69;;;14.95;41.26
75039;BME280;63609;49.992;14.512;2023-03-21T18:09:34;97817.81;;;14.96;41.40
75039;BME280;63609;49.992;14.512;2023-03-21T18:12:01;97820.59;;;14.73;42.03
75039;BME280;63609;49.992;14.512;2023-03-21T18:14:28;97816.59;;;14.17;43.28
75039;BME280;63609;49.992;14.512;2023-03-21T18:16:57;97821.31;;;14.30;43.33
75039;BME280;63609;49.992;14.512;2023-03-21T18:19:25;97813.56;;;14.35;43.28
75039;BME280;63609;49.992;14.512;2023-03-21T18:21:53;97809.06;;;14.50;43.42
75039;BME280;63609;49.992;14.512;2023-03-21T18:24:20;97819.38;;;14.24;44.77
75039;BME280;63609;49.992;14.512;2023-03-21T18:26:47;97817.50;;;13.78;46.74
75039;BME280;63609;49.992;14.512;2023-03-21T18:29:14;97829.38;;;13.84;46.69
75039;BME280;63609;49.992;14.512;2023-03-21T18:32:04;97825.38;;;14.03;45.31
75039;BME280;63609;49.992;14.512;2023-03-21T18:34:36;97830.94;;;13.47;45.90
75039;BME280;63609;49.992;14.512;2023-03-21T18:37:05;97825.16;;;13.28;46.74
75039;BME280;63609;49.992;14.512;2023-03-21T18:39:34;97828.97;;;13.33;46.14
75039;BME280;63609;49.992;14.512;2023-03-21T18:42:03;97830.34;;;13.29;46.34
75039;BME280;63609;49.992;14.512;2023-03-21T18:44:31;97828.44;;;13.38;45.84
75039;BME280;63609;49.992;14.512;2023-03-21T18:47:05;97825.56;;;13.00;47.20
75039;BME280;63609;49.992;14.512;2023-03-21T18:49:33;97823.31;;;13.28;46.87
75039;BME280;63609;49.992;14.512;2023-03-21T18:52:21;97827.69;;;13.13;46.80
75039;BME280;63609;49.992;14.512;2023-03-21T18:54:48;97824.13;;;13.29;46.84
75039;BME280;63609;49.992;14.512;2023-03-21T18:57:16;97821.75;;;13.42;46.16
75039;BME280;63609;49.992;14.512;2023-03-21T19:00:03;97822.13;;;13.31;46.34
75039;BME280;63609;49.992;14.512;2023-03-21T19:02:48;97820.09;;;13.33;45.90
75039;BME280;63609;49.992;14.512;2023-03-21T19:05:18;97821.38;;;12.98;46.59
75039;BME280;63609;49.992;14.512;2023-03-21T19:07:46;97817.69;;;13.07;46.55
75039;BME280;63609;49.992;14.512;2023-03-21T19:10:17;97819.34;;;13.08;46.82
75039;BME280;63609;49.992;14.512;2023-03-21T19:12:50;97821.13;;;12.68;47.87
75039;BME280;63609;49.992;14.512;2023-03-21T19:15:19;97813.31;;;12.42;48.88
75039;BME280;63609;49.992;14.512;2023-03-21T19:17:48;97810.47;;;12.19;49.76
75039;BME280;63609;49.992;14.512;2023-03-21T19:20:35;97811.78;;;12.15;49.69
75039;BME280;63609;49.992;14.512;2023-03-21T19:23:02;97813.47;;;12.49;48.33
75039;BME280;63609;49.992;14.512;2023-03-21T19:25:29;97815.41;;;12.79;48.40
75039;BME280;63609;49.992;14.512;2023-03-21T19:27:56;97825.19;;;13.11;47.73
75039;BME280;63609;49.992;14.512;2023-03-21T19:30:23;97821.00;;;13.17;47.32
75039;BME280;63609;49.992;14.512;2023-03-21T19:32:50;97814.81;;;13.08;47.09
75039;BME280;63609;49.992;14.512;2023-03-21T19:35:17;97821.44;;;13.29;46.03
75039;BME280;63609;49.992;14.512;2023-03-21T19:37:44;97809.00;;;13.36;46.26
75039;BME280;63609;49.992;14.512;2023-03-21T19:40:12;97814.97;;;12.51;48.38
75039;BME280;63609;49.992;14.512;2023-03-21T19:42:40;97820.16;;;12.37;50.08
75039;BME280;63609;49.992;14.512;2023-03-21T19:45:09;97810.88;;;12.72;48.74
75039;BME280;63609;49.992;14.512;2023-03-21T19:47:36;97808.41;;;13.26;47.20
75039;BME280;63609;49.992;14.512;2023-03-21T19:50:03;97808.47;;;13.48;46.40
75039;BME280;63609;49.992;14.512;2023-03-21T19:52:59;97816.88;;;13.45;46.09
75039;BME280;63609;49.992;14.512;2023-03-21T19:55:27;97803.81;;;13.42;46.69
75039;BME280;63609;49.992;14.512;2023-03-21T19:57:53;97807.50;;;13.41;46.78
75039;BME280;63609;49.992;14.512;2023-03-21T20:00:23;97809.28;;;13.10;47.69
75039;BME280;63609;49.992;14.512;2023-03-21T20:02:50;97804.25;;;13.15;47.04
75039;BME280;63609;49.992;14.512;2023-03-21T20:05:17;97808.34;;;12.86;47.89
75039;BME280;63609;49.992;14.512;2023-03-21T20:07:52;97808.06;;;12.65;48.21
75039;BME280;63609;49.992;14.512;2023-03-21T20:10:23;97803.59;;;12.41;49.29
75039;BME280;63609;49.992;14.512;2023-03-21T20:12:56;97806.44;;;12.15;49.78
75039;BME280;63609;49.992;14.512;2023-03-21T20:15:23;97807.94;;;12.10;50.00
75039;BME280;63609;49.992;14.512;2023-03-21T20:17:54;97807.59;;;11.88;50.51
75039;BME280;63609;49.992;14.512;2023-03-21T20:20:21;97815.25;;;11.75;51.36
75039;BME280;63609;49.992;14.512;2023-03-21T20:22:49;97808.88;;;11.60;52.03
75039;BME280;63609;49.992;14.512;2023-03-21T20:25:33;97808.00;;;11.43;52.33
75039;BME280;63609;49.992;14.512;2023-03-21T20:28:00;97810.63;;;11.27;52.59
75039;BME280;63609;49.992;14.512;2023-03-21T20:30:50;97808.94;;;11.18;52.79
75039;BME280;63609;49.992;14.512;2023-03-21T20:33:19;97810.63;;;10.93;53.42
75039;BME280;63609;49.992;14.512;2023-03-21T20:35:46;97814.94;;;11.20;52.42
75039;BME280;63609;49.992;14.512;2023-03-21T20:38:35;97811.44;;;11.19;52.26
75039;BME280;63609;49.992;14.512;2023-03-21T20:41:04;97809.94;;;10.91;53.15
75039;BME280;63609;49.992;14.512;2023-03-21T20:43:32;97799.56;;;11.14;52.05
75039;BME280;63609;49.992;14.512;2023-03-21T20:46:20;97810.53;;;11.45;52.27
75039;BME280;63609;49.992;14.512;2023-03-21T20:48:47;97816.50;;;11.04;52.89
75039;BME280;63609;49.992;14.512;2023-03-21T20:51:15;97808.28;;;10.90;53.40
75039;BME280;63609;49.992;14.512;2023-03-21T20:54:04;97812.63;;;10.91;52.86
75039;BME280;63609;49.992;14.512;2023-03-21T20:56:37;97804.66;;;11.07;52.91
75039;BME280;63609;49.992;14.512;2023-03-21T20:59:06;97806.91;;;11.12;52.89
75039;BME280;63609;49.992;14.512;2023-03-21T21:01:46;97809.94;;;11.17;53.00
75039;BME280;63609;49.992;14.512;2023-03-21T21:04:14;97807.94;;;11.19;53.40
75039;BME280;63609;49.992;14.512;2023-03-21T21:06:47;97809.59;;;11.12;53.38
75039;BME280;63609;49.992;14.512;2023-03-21T21:09:15;97817.47;;;11.21;53.02
75039;BME280;63609;49.992;14.512;2023-03-21T21:11:42;97812.72;;;11.49;52.64
75039;BME280;63609;49.992;14.512;2023-03-21T21:14:30;97810.66;;;11.43;52.46
75039;BME280;63609;49.992;14.512;2023-03-21T21:17:01;97817.81;;;11.34;52.69
75039;BME280;63609;49.992;14.512;2023-03-21T21:19:49;97819.09;;;11.14;52.77
75039;BME280;63609;49.992;14.512;2023-03-21T21:22:16;97816.59;;;11.13;52.46
75039;BME280;63609;49.992;14.512;2023-03-21T21:24:44;97811.97;;;11.31;51.97
75039;BME280;63609;49.992;14.512;2023-03-21T21:27:11;97824.56;;;11.55;50.91
75039;BME280;63609;49.992;14.512;2023-03-21T21:29:38;97821.69;;;11.40;51.74
75039;BME280;63609;49.992;14.512;2023-03-21T21:32:05;97817.41;;;11.72;50.73
75039;BME280;63609;49.992;14.512;2023-03-21T21:34:32;97821.56;;;11.58;51.14
75039;BME280;63609;49.992;14.512;2023-03-21T21:36:59;97818.75;;;11.67;50.61
75039;BME280;63609;49.992;14.512;2023-03-21T21:39:26;97812.16;;;11.03;52.73
75039;BME280;63609;49.992;14.512;2023-03-21T21:41:53;97817.13;;;11.16;52.39
75039;BME280;63609;49.992;14.512;2023-03-21T21:44:20;97819.06;;;11.56;51.43
75039;BME280;63609;49.992;14.512;2023-03-21T21:46:47;97817.00;;;11.42;51.88
75039;BME280;63609;49.992;14.512;2023-03-21T21:49:14;97814.66;;;11.39;51.53
75039;BME280;63609;49.992;14.512;2023-03-21T21:51:42;97814.66;;;10.97;52.37
75039;BME280;63609;49.992;14.512;2023-03-21T21:54:10;97811.41;;;11.11;52.05
75039;BME280;63609;49.992;14.512;2023-03-21T21:56:44;97809.84;;;10.74;52.94
75039;BME280;63609;49.992;14.512;2023-03-21T21:59:14;97812.69;;;10.73;52.93
75039;BME280;63609;49.992;14.512;2023-03-21T22:01:41;97817.84;;;10.74;53.09
75039;BME280;63609;49.992;14.512;2023-03-21T22:04:08;97815.88;;;10.76;52.82
75039;BME280;63609;49.992;14.512;2023-03-21T22:06:36;97812.47;;;10.92;52.23
75039;BME280;63609;49.992;14.512;2023-03-21T22:09:04;97816.47;;;10.96;52.04
75039;BME280;63609;49.992;14.512;2023-03-21T22:11:31;97814.94;;;11.20;51.39
75039;BME280;63609;49.992;14.512;2023-03-21T22:13:58;97806.84;;;10.77;52.49
75039;BME280;63609;49.992;14.512;2023-03-21T22:16:25;97804.91;;;10.80;52.57
75039;BME280;63609;49.992;14.512;2023-03-21T22:18:52;97814.59;;;10.81;52.80
75039;BME280;63609;49.992;14.512;2023-03-21T22:21:19;97811.00;;;11.06;52.86
75039;BME280;63609;49.992;14.512;2023-03-21T22:23:46;97808.19;;;11.50;50.97
75039;BME280;63609;49.992;14.512;2023-03-21T22:26:13;97807.78;;;11.20;51.46
75039;BME280;63609;49.992;14.512;2023-03-21T22:28:40;97806.94;;;11.20;51.52
75039;BME280;63609;49.992;14.512;2023-03-21T22:31:14;97812.63;;;11.25;51.06
75039;BME280;63609;49.992;14.512;2023-03-21T22:33:43;97807.94;;;10.93;51.95
75039;BME280;63609;49.992;14.512;2023-03-21T22:36:10;97813.66;;;10.98;51.94
75039;BME280;63609;49.992;14.512;2023-03-21T22:38:37;97811.22;;;10.79;52.01
75039;BME280;63609;49.992;14.512;2023-03-21T22:41:08;97816.28;;;10.90;52.20
75039;BME280;63609;49.992;14.512;2023-03-21T22:43:35;97811.75;;;10.82;52.29
75039;BME280;63609;49.992;14.512;2023-03-21T22:46:02;97814.13;;;10.93;51.90
75039;BME280;63609;49.992;14.512;2023-03-21T22:48:30;97816.63;;;11.21;51.33
75039;BME280;63609;49.992;14.512;2023-03-21T22:50:59;97812.03;;;11.55;50.31
75039;BME280;63609;49.992;14.512;2023-03-21T22:53:28;97816.13;;;11.25;50.50
75039;BME280;63609;49.992;14.512;2023-03-21T22:55:56;97813.78;;;10.88;51.79
75039;BME280;63609;49.992;14.512;2023-03-21T22:58:23;97809.28;;;11.23;51.09
75039;BME280;63609;49.992;14.512;2023-03-21T23:00:50;97811.28;;;10.95;51.62
75039;BME280;63609;49.992;14.512;2023-03-21T23:03:17;97813.69;;;11.06;51.33
75039;BME280;63609;49.992;14.512;2023-03-21T23:05:44;97816.31;;;10.64;52.17
75039;BME280;63609;49.992;14.512;2023-03-21T23:08:11;97817.69;;;10.76;52.71
75039;BME280;63609;49.992;14.512;2023-03-21T23:10:39;97818.25;;;10.80;52.31
75039;BME280;63609;49.992;14.512;2023-03-21T23:13:09;97814.47;;;10.98;51.71
75039;BME280;63609;49.992;14.512;2023-03-21T23:15:36;97818.94;;;10.82;52.28
75039;BME280;63609;49.992;14.512;2023-03-21T23:18:04;97816.09;;;10.57;53.20
75039;BME280;63609;49.992;14.512;2023-03-21T23:20:31;97817.69;;;10.76;53.00
75039;BME280;63609;49.992;14.512;2023-03-21T23:22:58;97811.97;;;10.97;52.43
75039;BME280;63609;49.992;14.512;2023-03-21T23:25:25;97816.16;;;11.42;51.79
75039;BME280;63609;49.992;14.512;2023-03-21T23:27:54;97819.31;;;11.29;51.67
75039;BME280;63609;49.992;14.512;2023-03-21T23:30:21;97811.66;;;11.34;51.64
75039;BME280;63609;49.992;14.512;2023-03-21T23:32:49;97816.31;;;10.64;53.01
75039;BME280;63609;49.992;14.512;2023-03-21T23:35:15;97819.84;;;10.72;53.08
75039;BME280;63609;49.992;14.512;2023-03-21T23:37:42;97816.13;;;10.39;53.88
75039;BME280;63609;49.992;14.512;2023-03-21T23:40:15;97822.75;;;10.53;53.53
75039;BME280;63609;49.992;14.512;2023-03-21T23:42:42;97823.38;;;10.47;53.55
75039;BME280;63609;49.992;14.512;2023-03-21T23:45:10;97817.56;;;10.52;54.08
75039;BME280;63609;49.992;14.512;2023-03-21T23:47:37;97824.47;;;10.36;54.15
75039;BME280;63609;49.992;14.512;2023-03-21T23:50:04;97828.84;;;10.45;54.11
75039;BME280;63609;49.992;14.512;2023-03-21T23:52:35;97836.28;;;10.34;54.85
75039;BME280;63609;49.992;14.512;2023-03-21T23:55:03;97832.28;;;10.56;54.22
75039;BME280;63609;49.992;14.512;2023-03-21T23:57:31;97825.19;;;10.72;54.82
75039;BME280;63609;49.992;14.512;2023-03-21T23:59:58;97831.28;;;10.57;54.86
